Relevés horaires La Dôle (Suisse)


Relevés horaires à La Dôle - Lundi 14 Janv. 2008
Heure UTC1 Température [°C] Vent [km/h] Hum. [%] Pres.4 [hPa] Visi. [Km] Nébu. [octa] Préc.5 [mm] Cond.
2m. Res. Ros. Dir.2 Vit. Moy. Raf.3
23:00 -1.8 -8.3 -2.4 S 25.9 33.3 44.4 96 850(0.3/3h) -- -- -- --
22:00 -1.4 -7.8 -1.9 SO 25.9 33.3 48.2 96 850(0.2/3h) -- -- -- --
21:00 -1.7 -8.4 -2.1 OSO 27.8 51.9 68.5 97 850(0.4/3h) -- -- -- --
20:00 -1.7 -8.9 -2.2 OSO 31.5 48.2 64.8 96 850(1.1/3h) -- -- -- --
19:00 -1.5 -9.9 -2.3 SSO 46.3 48.2 66.7 94 850(1.3/3h) -- -- -- --
18:00 -2.2 -10.7 -2.2 S 44.4 57.4 83.3 100 850(1.3/3h) -- -- -- --
17:00 -1.9 -10.2 -1.9 S 42.6 51.9 68.5 100 850(0.7/3h) -- -- -- --
16:00 -1.9 -10.6 -2.0 S 48.2 55.6 68.5 99 850(0.2/3h) -- -- -- --
15:00 -1.6 -10.3 -1.6 S 50.0 57.4 83.3 100 850(-0.7/3h) -- -- -- --
14:00 -2.7 -12 -2.7 S 51.9 53.7 72.2 100 850(-1.1/3h) -- -- -- --
13:00 -2.6 -11.8 -2.9 S 51.9 55.6 72.2 98 850(-0.8/3h) -- -- -- --
12:00 -2.2 -11.3 -5.9 SSO 51.9 57.4 83.3 76 850(0.0/3h) -- -- -- --
11:00 -1.7 -10.7 -7.1 SSO 53.7 57.4 83.3 66 850(0.6/3h) -- -- -- --
10:00 -1.8 -11.1 -7.7 SSO 57.4 57.4 75.9 64 850(0.9/3h) -- -- -- --
09:00 -1.5 -9.8 -8.4 SO 44.4 55.6 75.9 59 850(0.8/3h) -- -- -- --
08:00 -2.2 -10.1 -7.7 OSO 37.0 40.7 59.3 66 850(0.4/3h) -- -- -- --
07:00 -2.9 -10.4 -6.9 OSO 31.5 40.7 59.3 74 850(0.1/3h) -- -- -- --
06:00 -2.5 -10.1 -6.6 OSO 33.3 57.4 75.9 73 850(0.0/3h) -- -- -- --
05:00 -1.4 -9.5 -7.4 SO 42.6 55.6 75.9 64 850(0.2/3h) -- -- -- --
04:00 -0.8 -9 -7.8 SO 46.3 55.6 72.2 59 850(0.4/3h) -- -- -- --
03:00 -0.5 -8.7 -7.7 SSO 48.2 57.4 72.2 58 850(-0.2/3h) -- -- -- --
02:00 -1.2 -9.8 -6.5 S 50.0 57.4 72.2 67 850(-0.5/3h) -- -- -- --
01:00 -0.6 -9.2 -6.5 S 53.7 57.4 72.2 64 850(-0.5/3h) -- -- -- --
00:00 -0.9 -9.4 -6.2 S 50.0 57.4 70.4 67 850(-0.4/3h) -- -- -- --

1 Coordinated Universal Time. Actuellement il est 04:00 locale et 02:00 UTC.

2 Le vent souffle depuis la direction indiquée vers la direction oposée.

3 Les rafales max. sont disponible 40 min après l'heure du relevé.

4 Pour les stations d'altitude (plus de 600m) le géopotentiel du niveau le plus proche de la pression obligatoire est indiqué.

5 Les stations disposant d'un diffuseur peuvent indiquer "trace". Cela signifie que des précipitations ont touchés le sol mais que la quantité est inférieure à 0.1 mm.

Copyright

Les données affichées sur cette page sont la propriété exclusive de Météo Suisse.

Récapitulatif de la journée
Température [°C] Vent [km/h] Ensoleillement4 [h] Precipitations totale5 [mm] Pression [Hpa]
Min1 Max.2 Moy.3 Max. Min Max.
-3.3 -0.9 52.2 83.3 0 h 0 min 0 850.0 850.0

1 Température minimale relevée entre 18:00 UTC la veille et 18:00 UTC le jour donné.

2 Température maximale relevée entre 06:00 UTC le jour donné et 06:00 UTC le lendemain.

3 Vent moyen de la journée basé sur les relevés horaires.

4 Ensoleillement en heures relevé entre 06:00 UTC la veille et 06:00 UTC le jour donné.

5 Précipitations totales tombées entre 06:00 UTC la jour donné et 06:00 UTC le lendemain.

Graphiques horaires